KMLU METAR and TAF | Updated Today

KMLU METAR

Monroe Regional Airport

Observation time: 42 min. ago

KMLU 301753Z 22008KT 10SM CLR 21/10 A3018 RMK AO2 SLP220 T02110100 10211 20044 58009

Need help? Read our tutorial on how to read METARs or read the parsed version below.

Monroe Regional Airport (KMLU) METAR

  • Weather conditions on Tue, 30 Nov 2021 17:53:00 +0000 (42 min. ago):
  • Present conditions: Dry
  • Clouds: Clear skies
  • Visibility: 16093 meters
  • Wind: 220 degrees at 8 knots
  • Temperature: 21 celsius
  • Dew point: 10 celsius
  • Pressure: 30.18 inHg
  • Remarks: AO2 SLP220 T02110100 10211 20044 58009


Useful to know...

KMLU TAF

Monroe Regional Airport

KMLU 301725Z 3018/0118 21007KT P6SM SCT250 FM010000 VRB03KT P6SM FEW250 FM011500 22011KT P6SM SKC
Observation time: 70 min. ago
Need help? Read our tutorial on how to read TAFs or read the parsed version below.

Parsed version of TAF for Monroe Regional Airport (KMLU)

  • From 30 November at 18:00 UTC, to day 01 of the month at 18:00 UTC
  • Clouds: Scattered at 7620 meters
  • Wind: 210 degrees at 7
  • From day 1 of the month at 00:00 UTC
  • Clouds: A few at 7620 meters
  • Wind: Variable at 3
  • From day 1 of the month at 15:00 UTC
  • Clouds: No significant changes expected
  • Wind: 220 degrees at 11

Airports near KMLU

KRSN Weather
Region: Ruston

Ruston Regional Airport

Not found in our database